createdAt,value
2019-02-10T00:02:06.206Z,5.70
2019-02-10T00:07:07.882Z,4.73
2019-02-10T00:12:09.469Z,7.47
2019-02-10T00:17:11.026Z,3.70
2019-02-10T00:22:12.592Z,3.43
2019-02-10T00:27:14.278Z,5.80
2019-02-10T00:32:15.856Z,3.47
2019-02-10T00:37:17.434Z,5.07
2019-02-10T00:42:18.988Z,6.23
2019-02-10T00:47:20.567Z,3.57
2019-02-10T00:52:22.237Z,4.57
2019-02-10T00:57:23.804Z,3.13
2019-02-10T01:02:25.360Z,4.30
2019-02-10T01:07:27.043Z,5.47
2019-02-10T01:12:28.591Z,3.80
2019-02-10T01:17:30.144Z,3.30
2019-02-10T01:22:31.845Z,3.77
2019-02-10T01:27:33.413Z,5.17
2019-02-10T01:32:34.964Z,4.80
2019-02-10T01:37:36.520Z,4.97
2019-02-10T01:42:38.164Z,3.93
2019-02-10T01:47:39.823Z,4.30
2019-02-10T01:52:41.379Z,4.80
2019-02-10T01:57:43.047Z,3.17
2019-02-10T02:02:44.700Z,3.30
2019-02-10T02:07:46.262Z,4.00
2019-02-10T02:12:47.815Z,5.57
2019-02-10T02:17:49.369Z,6.40
2019-02-10T02:22:50.913Z,4.20
2019-02-10T02:27:52.483Z,6.33
2019-02-10T02:32:54.070Z,7.97
2019-02-10T02:37:55.642Z,3.57
2019-02-10T02:42:57.203Z,4.37
2019-02-10T02:47:58.865Z,2.20
2019-02-10T02:53:00.432Z,3.77
2019-02-10T02:58:02.006Z,5.07
2019-02-10T03:03:03.855Z,7.07
2019-02-10T03:08:05.431Z,6.63
2019-02-10T03:13:07.010Z,4.90
2019-02-10T03:18:08.556Z,7.33
2019-02-10T03:23:10.111Z,5.30
2019-02-10T03:28:11.806Z,4.53
2019-02-10T03:33:13.359Z,5.47
2019-02-10T03:38:14.913Z,2.90
2019-02-10T03:43:16.510Z,7.50
2019-02-10T03:48:18.187Z,8.03
2019-02-10T03:53:19.733Z,5.33
2019-02-10T03:58:21.320Z,5.43
2019-02-10T04:03:22.879Z,5.87
2019-02-10T04:08:24.445Z,4.77
2019-02-10T04:13:26.005Z,3.93
2019-02-10T04:18:27.572Z,6.30
2019-02-10T04:23:29.221Z,5.70
2019-02-10T04:28:30.789Z,7.47
2019-02-10T04:33:32.349Z,5.07
2019-02-10T04:38:33.913Z,3.67
2019-02-10T04:43:35.461Z,4.57
2019-02-10T04:48:37.022Z,5.97
2019-02-10T04:53:38.577Z,3.23
2019-02-10T04:58:40.144Z,6.20
2019-02-10T05:03:41.698Z,7.83
2019-02-10T05:08:43.248Z,7.33
2019-02-10T05:13:44.845Z,5.33
2019-02-10T05:18:46.422Z,5.77
2019-02-10T05:23:48.096Z,7.23
2019-02-10T05:28:49.652Z,7.33
2019-02-10T05:33:51.249Z,4.90
2019-02-10T05:38:52.806Z,4.53
2019-02-10T05:43:54.469Z,6.17
2019-02-10T05:48:56.029Z,4.07
2019-02-10T05:53:57.607Z,6.90
2019-02-10T05:58:59.162Z,5.77
2019-02-10T06:04:00.768Z,3.53
2019-02-10T06:09:03.770Z,6.87
2019-02-10T06:14:05.318Z,4.37
2019-02-10T06:19:06.923Z,7.63
2019-02-10T06:24:08.490Z,4.13
2019-02-10T06:29:10.111Z,6.60
2019-02-10T06:34:11.700Z,3.50
2019-02-10T06:39:13.310Z,2.17
2019-02-10T06:44:14.876Z,3.07
2019-02-10T06:49:16.441Z,4.17
2019-02-10T06:54:18.011Z,7.77
2019-02-10T06:59:48.107Z,4.90
2019-02-10T07:04:49.668Z,4.90
2019-02-10T07:09:51.221Z,3.60
2019-02-10T07:15:00.612Z,4.67
2019-02-10T07:20:36.538Z,5.73
2019-02-10T07:26:06.275Z,5.77
2019-02-10T07:31:07.847Z,5.20
2019-02-10T07:36:17.719Z,7.00
2019-02-10T07:41:52.365Z,2.67
2019-02-10T07:47:42.202Z,3.53
2019-02-10T07:53:18.250Z,3.70
2019-02-10T07:58:30.099Z,6.07
2019-02-10T08:04:20.036Z,6.07
2019-02-10T08:09:46.926Z,3.20
2019-02-10T08:15:25.471Z,2.57
2019-02-10T08:20:46.212Z,7.53
2019-02-10T08:26:28.553Z,5.43
2019-02-10T08:32:07.144Z,3.03
2019-02-10T08:37:33.579Z,5.80
2019-02-10T08:43:17.856Z,4.60
2019-02-10T08:48:52.947Z,4.87
2019-02-10T08:53:54.659Z,3.67
2019-02-10T08:58:56.727Z,3.47
2019-02-10T09:03:58.343Z,2.77
2019-02-10T09:09:02.589Z,4.13
2019-02-10T09:14:03.563Z,2.87
2019-02-10T09:19:05.244Z,1.50
2019-02-10T09:24:06.843Z,7.97
2019-02-10T09:29:08.567Z,2.37
2019-02-10T09:34:10.304Z,2.40
2019-02-10T09:39:11.922Z,1.53
2019-02-10T09:44:13.545Z,2.27
2019-02-10T09:49:15.262Z,1.23
2019-02-10T09:54:16.888Z,1.73
2019-02-10T09:59:18.524Z,2.17
2019-02-10T10:04:20.214Z,1.50
2019-02-10T10:09:22.008Z,1.40
2019-02-10T10:14:30.693Z,3.37
2019-02-10T10:19:27.323Z,2.33
2019-02-10T10:24:28.916Z,1.57
2019-02-10T10:29:30.500Z,0.70
2019-02-10T10:34:32.091Z,0.67
2019-02-10T10:39:33.695Z,1.83
2019-02-10T10:44:35.259Z,2.20
2019-02-10T10:49:36.835Z,2.73
2019-02-10T10:54:42.765Z,1.47
2019-02-10T10:59:41.908Z,1.10
2019-02-10T11:04:43.497Z,2.93
2019-02-10T11:09:45.076Z,1.30
2019-02-10T11:14:46.663Z,1.60
2019-02-10T11:19:48.221Z,1.67
2019-02-10T11:24:49.911Z,2.60
2019-02-10T11:29:51.537Z,1.33
2019-02-10T11:34:53.214Z,0.97
2019-02-10T11:39:54.788Z,0.93
2019-02-10T11:44:56.401Z,1.00
2019-02-10T11:49:57.967Z,1.30
2019-02-10T11:54:59.648Z,1.83
2019-02-10T12:00:01.318Z,3.00
2019-02-10T12:05:03.445Z,1.67
2019-02-10T12:10:05.572Z,0.87
2019-02-10T12:15:08.053Z,0.70
2019-02-10T12:20:09.935Z,1.57
2019-02-10T12:25:12.308Z,1.30
2019-02-10T12:30:14.101Z,2.63
2019-02-10T12:35:15.667Z,2.10
2019-02-10T12:40:17.215Z,2.70
2019-02-10T12:45:18.782Z,0.97
2019-02-10T12:50:20.455Z,1.30
2019-02-10T12:55:21.997Z,0.70
2019-02-10T13:00:23.657Z,1.47
2019-02-10T13:05:25.227Z,1.60
2019-02-10T13:10:26.776Z,0.90
2019-02-10T13:15:29.137Z,3.97
2019-02-10T13:20:30.824Z,0.77
2019-02-10T13:25:32.412Z,0.80
2019-02-10T13:30:33.978Z,1.10
2019-02-10T13:35:35.534Z,0.80
2019-02-10T13:40:37.109Z,2.73
2019-02-10T13:45:38.689Z,0.73
2019-02-10T13:50:40.317Z,0.73
2019-02-10T13:55:41.901Z,0.73
2019-02-10T14:00:43.508Z,0.93
2019-02-10T14:05:45.108Z,1.20
2019-02-10T14:10:46.683Z,0.60
2019-02-10T14:15:48.265Z,3.53
2019-02-10T14:20:49.857Z,0.80
2019-02-10T14:25:51.543Z,2.10
2019-02-10T14:30:53.270Z,2.40
2019-02-10T14:35:54.830Z,1.03
2019-02-10T14:40:56.385Z,1.30
2019-02-10T14:45:58.105Z,1.07
2019-02-10T14:50:59.670Z,1.57
2019-02-10T14:56:01.244Z,1.77
2019-02-10T15:01:02.796Z,1.47
2019-02-10T15:06:04.357Z,0.97
2019-02-10T15:11:05.904Z,1.33
2019-02-10T15:16:07.458Z,0.87
2019-02-10T15:21:09.042Z,1.40
2019-02-10T15:26:10.626Z,1.40
2019-02-10T15:31:12.304Z,1.87
2019-02-10T15:36:13.874Z,2.33
2019-02-10T15:41:15.466Z,1.33
2019-02-10T15:46:17.078Z,1.73
2019-02-10T15:51:18.759Z,0.90
2019-02-10T15:56:20.342Z,1.63
2019-02-10T16:01:21.896Z,1.20
2019-02-10T16:06:23.551Z,1.07
2019-02-10T16:11:25.124Z,1.20
2019-02-10T16:16:26.696Z,1.70
2019-02-10T16:21:28.482Z,1.80
2019-02-10T16:26:30.209Z,0.83
2019-02-10T16:31:31.780Z,1.87
2019-02-10T16:36:33.363Z,1.70
2019-02-10T16:41:34.936Z,1.10
2019-02-10T16:46:36.484Z,1.10
2019-02-10T16:51:38.038Z,1.83
2019-02-10T16:56:39.633Z,1.07
2019-02-10T17:01:41.259Z,1.23
2019-02-10T17:06:42.844Z,1.20
2019-02-10T17:11:44.415Z,1.00
2019-02-10T17:16:46.023Z,1.23
2019-02-10T17:21:47.711Z,0.80
2019-02-10T17:26:49.311Z,1.77
2019-02-10T17:31:50.907Z,0.90
2019-02-10T17:36:52.485Z,1.03
2019-02-10T17:41:54.071Z,1.00
2019-02-10T17:46:55.641Z,2.63
2019-02-10T17:51:57.232Z,1.77
2019-02-10T17:56:58.949Z,4.07
2019-02-10T18:02:00.556Z,2.30
2019-02-10T18:07:02.281Z,1.23
2019-02-10T18:12:03.874Z,1.90
2019-02-10T18:17:20.795Z,1.20
2019-02-10T18:22:47.807Z,2.30
2019-02-10T18:28:03.556Z,0.87
2019-02-10T18:33:24.796Z,1.00
2019-02-10T18:38:40.330Z,1.10
2019-02-10T18:44:00.465Z,1.90
2019-02-10T18:49:24.026Z,1.87
2019-02-10T18:54:49.531Z,1.43
2019-02-10T19:00:09.448Z,0.87
2019-02-10T19:05:25.566Z,0.83
2019-02-10T19:10:37.701Z,1.07
2019-02-10T19:16:17.176Z,1.00
2019-02-10T19:21:44.599Z,0.43
2019-02-10T19:27:04.557Z,0.57
2019-02-10T19:32:31.580Z,1.63
2019-02-10T19:37:55.722Z,0.63
2019-02-10T19:43:16.959Z,0.60
2019-02-10T19:48:53.282Z,0.20
2019-02-10T19:54:19.866Z,0.67
2019-02-10T19:59:59.080Z,0.40
2019-02-10T20:05:26.143Z,0.80
2019-02-10T20:10:38.899Z,1.40
2019-02-10T20:15:59.030Z,0.80
2019-02-10T20:21:19.868Z,0.80
2019-02-10T20:26:44.323Z,0.50
2019-02-10T20:31:56.247Z,0.93
2019-02-10T20:37:21.465Z,0.73
2019-02-10T20:42:32.979Z,0.53
2019-02-10T20:47:57.167Z,0.60
2019-02-10T20:53:08.892Z,0.53
2019-02-10T20:58:17.413Z,1.00
2019-02-10T21:03:44.439Z,0.60
2019-02-10T21:08:52.099Z,0.30
2019-02-10T21:14:04.140Z,1.47
2019-02-10T21:19:14.587Z,1.33
2019-02-10T21:24:34.422Z,0.93
2019-02-10T21:29:55.666Z,0.20
2019-02-10T21:35:10.998Z,0.30
2019-02-10T21:40:25.893Z,1.07
2019-02-10T21:45:36.681Z,0.50
2019-02-10T21:50:38.256Z,0.57
2019-02-10T21:55:39.817Z,0.20
2019-02-10T22:00:41.427Z,0.97
2019-02-10T22:05:42.978Z,0.23
2019-02-10T22:10:44.566Z,0.60
2019-02-10T22:15:46.150Z,1.90
2019-02-10T22:20:47.740Z,0.20
2019-02-10T22:25:49.317Z,0.20
2019-02-10T22:30:50.915Z,0.30
2019-02-10T22:35:52.554Z,0.30
2019-02-10T22:40:54.139Z,1.43
2019-02-10T22:45:55.727Z,0.73
2019-02-10T22:50:57.304Z,0.10
2019-02-10T22:55:58.881Z,0.57
2019-02-10T23:01:02.881Z,0.20
2019-02-10T23:06:04.456Z,0.20
2019-02-10T23:11:06.034Z,0.30
2019-02-10T23:16:07.600Z,0.20
2019-02-10T23:21:09.201Z,0.27
2019-02-10T23:26:10.811Z,0.10
2019-02-10T23:31:12.378Z,0.20
2019-02-10T23:36:13.945Z,0.27
2019-02-10T23:41:15.500Z,0.73
2019-02-10T23:46:17.057Z,0.30
2019-02-10T23:51:18.618Z,0.20
2019-02-10T23:56:20.410Z,0.17
